Ride Results

Stirling's Classic (01-08-2020)
Ride distance: 120.0 km Elevator

Outcomes - Stirling's Classic (01-08-2020)
Division No. of Entries Retired / DNE Completed Withdrawn Ineligible V/O Percentage Completed
HW 7 4 2 - - 1 85.71%
MW 29 14 11 - - 4 86.21%
LW 31 13 12 2 - 4 80.65%
JN 17 7 6 - - 4 76.47%
Totals 84 38 31 2 - 13 82.14%
Results - Stirling's Classic (01-08-2020)
No. Rider Horse Place Time Leg Speeds Total
Km/Hr
H/R bpm
Heavyweight
59 Duncan Woodhead San Ella Navit 1 (BC) 9:09:05 13.9, 13.8, 11.7 13.11 32, 44, 46, 50 (Avg:46)
66 Matthew Gadsby Aphrodite Malakia 2 9:31:42 12.7, 13.1, 11.8 12.59 34, 46, 43, 52 (Avg:47)
70 Mark Nimon Abbeywood Zsarina Retired/DNE L2 4:46:02 17.4, 16.1 16.78 36, 43, 51 (Avg:47)
31 Jamie Green No Regret Shocking Retired/DNE L2 5:10:03 14.9, 16.0 15.48 32, 52, 48 (Avg:50)
11 Gillian Taylor Cool Water Moonstone Retired/DNE L2 8:11:02 9.8, 9.7 9.78 34, 45, 45 (Avg:45)
78 Arron Turnbull Shardell Magic Moment Retired/DNE L2 8:23:29 8.8, 10.2 9.53 33, 47, 53 (Avg:50)
18 Gavin Bartlett Longrun Cassius Lame L1 0:00:00 10.5 - 68, 49, 50 (Avg:49)
Middleweight
3 Matthew Sample Anglesea Finneas 1 (BC) 7:24:21 16.1, 16.4, 16.0 16.20 35, 47, 48, 53 (Avg:49)
22 Akhmed Pshunov Anglesea Gabriella 2 7:44:41 14.9, 16.0, 15.5 15.49 39, 44, 44, 52 (Avg:46)
9 Fiona Fenech Sweet Honesty Molleeh 3 8:00:37 14.9, 16.2, 13.8 14.98 36, 45, 48, 48 (Avg:47)
6 Steve Gray Bluedawn Amir 4 8:01:09 15.3, 15.8, 13.8 14.96 29, 42, 46, 52 (Avg:46)
49 David Urquhart Bangalow Park Coopers Lad 5 8:08:08 14.9, 15.8, 13.6 14.75 34, 48, 53, 52 (Avg:51)
41 Jessie Mihocek Brookleigh Gandalf 6 8:09:38 13.2, 16.4, 14.7 14.70 35, 49, 46, 47 (Avg:47)
14 Stephanie Malmborg Wattle Tree Amir 7 8:30:00 14.8, 15.8, 12.1 14.12 40, 46, 46, 37 (Avg:43)
24 Penny Toft Larntainey Silver Treasure 8 8:35:01 14.3, 14.2, 13.4 13.98 30, 43, 43, 42 (Avg:42)
30 Kane Kelso PVE Remington 9 9:17:39 18.0, 16.3, 8.6 12.91 34, 47, 42, 44 (Avg:44)
67 Kelly Broderick Lanamere Brio 10 11:37:39 10.6, 10.7, 9.6 10.32 30, 42, 50, 50 (Avg:47)
36 Sarah Fraser O'Brien Amazing Grace te 11 12:05:36 10.7, 10.2, 8.9 9.92 38, 52, 43, 44 (Avg:46)
71 Virginia Barber Burralga Angelikha Retired/DNE L2 4:46:08 17.4, 16.1 16.78 33, 44, 53 (Avg:48)
7 Debra McQueen Kynnum Park Mr Epona Retired/DNE L2 5:18:04 15.3, 14.8 15.09 34, 52, 42 (Avg:47)
28 Hannah Riggs Briallyn Panache Retired/DNE L2 6:10:03 13.0, 12.9 12.97 40, 46, 42 (Avg:44)
21 Ondy Laws-King Heathfield's Flashrani Retired/DNE L2 6:15:54 11.6, 14.0 12.77 31, 36, 45 (Avg:40)
4 Alex Moir Stirling's Chakra Retired/DNE L2 6:21:14 12.7, 12.4 12.59 37, 52, 35 (Avg:43)
84 Dean Chamberlain Talika Showdown Retired/DNE L2 7:20:21 11.6, 10.2 10.90 44, 40, 52 (Avg:46)
10 Danielle Kendall Zelda te Retired/DNE L2 (Rep) 7:36:31 10.7, 10.2 10.51 36, 38, 42 (Avg:40)
79 Lexi Morton Arny's Bad Moon Arisin Retired/DNE L2 8:05:21 10.3, 9.4 9.89 31, 48, 41 (Avg:44)
8 Linda Lochtenberg Matta Mia Dayimi Retired/DNE L2 8:13:33 10.5, 9.0 9.73 48, 44, 49 (Avg:46)
81 Michelle Goudge Mt Eerwah Bay Cavalier Retired/DNE L2 8:18:47 10.7, 8.7 9.62 32, 39, 45 (Avg:42)
37 Jayson Robertson Shardell Neo Retired/DNE L2 8:23:22 8.9, 10.2 9.54 42, 42, 41 (Avg:41)
58 Bianca Richards Brookleigh Al Jolson Retired/DNE L2 10:01:00 9.6, 6.7 7.99 42, 44, 50 (Avg:47)
27 Saasha Grogan Halo Rhapsody In Blue Retired/DNE L2 10:09:29 8.7, 7.1 7.88 34, 36, 44 (Avg:40)
26 Mark Grogan S'Shaada Zephyr Retired/DNE L2 10:09:40 8.7, 7.1 7.87 40, 40, 39 (Avg:39)
32 Karen Lee Mishka El Amarni Lame L3 0:00:00 13.3, 12.1, 7.9 - 43, 54, 45, 60 (Avg:53)
1 Scarlet McQueen Stirling's Genevieve Lame L3 0:00:00 16.1, 16.4, 16.0 - 34, 42, 39, 47 (Avg:42)
20 Sue Vacher Fortaleza Ascira Lame L3 0:00:00 18.1, 16.2, 9.9 - 40, 48, 46, 44 (Avg:46)
65 Jess Dakin Boonara Shere Khan Lame L2 0:00:00 12.7, 13.1 - 40, 49, 54 (Avg:51)
Lightweight
13 Renee Kelso Bonnie Doon Ashquar 1 7:24:08 17.8, 16.4, 14.6 16.21 32, 46, 47, 55 (Avg:49)
61 Amaya Thomas Gundabah Fair Lady 2 8:01:50 14.9, 16.2, 13.7 14.94 32, 45, 46, 52 (Avg:47)
48 Janelle Taylor Calico Jarkamarn 3 8:08:00 14.7, 16.3, 13.4 14.75 30, 40, 42, 47 (Avg:43)
23 Alexandra Toft Twilight te 4 (BC) 8:35:03 14.3, 14.2, 13.4 13.98 28, 39, 35, 36 (Avg:36)
33 Kaylea Maher A'Landell Challenger 5 9:00:00 13.3, 13.3, 13.3 13.33 33, 39, 39, 49 (Avg:42)
60 Narelle Childs Maxwell Staccato 6 9:09:03 13.9, 13.8, 11.7 13.11 34, 43, 47, 45 (Avg:45)
53 Clare Fleming Flemingo Bomsaway 7 9:26:45 13.1, 13.5, 11.6 12.70 29, 42, 40, 36 (Avg:39)
2 Kenysha Dakin Aloha Kashshar 8 9:31:46 13.1, 12.8, 11.8 12.59 34, 45, 42, 50 (Avg:45)
16 Shelley Chapman Cameo Felspar 9 9:39:21 14.0, 12.9, 10.7 12.43 34, 49, 48, 53 (Avg:50)
17 Maeve Paten Box Hill Nitro 10 9:39:26 14.0, 12.9, 10.6 12.43 32, 43, 37, 41 (Avg:40)
19 Jennifer Thompson Miva Philamina 11 11:19:37 13.3, 12.1, 7.9 10.59 37, 43, 42, 49 (Avg:44)
83 Shannon Hill Burren-dah Narla 12 12:43:00 10.5, 10.5, 7.7 9.44 37, 38, 39, 50 (Avg:42)
43 Sarah Neill Brookleigh Sage Retired/DNE L2 6:26:09 12.6, 12.1 12.43 36, 47, 41, 0 (Avg:29)
45 Leigh Ann Sample Brookleigh Homer Retired/DNE L2 6:26:22 12.7, 12.1 12.42 37, 39, 42 (Avg:40)
25 Emma Shone Brookleigh Syria Retired/DNE L2 6:53:04 12.3, 10.9 11.62 34, 41, 48 (Avg:44)
15 Ema Basic Poco Lingote Retired/DNE L2 7:08:41 12.3, 10.2 11.20 29, 48, 49 (Avg:48)
62 Leigh Rich El Crown Prince Retired/DNE L2 7:08:46 12.3, 10.2 11.19 30, 37, 46 (Avg:41)
68 Sonya Ryan Kholonial Lightning Jack Retired/DNE L2 7:28:43 10.6, 10.6 10.70 32, 47, 49 (Avg:48)
77 Ashleigh Grassick Dunbar Caspian Retired/DNE L2 7:35:37 11.2, 9.9 10.54 32, 43, 42 (Avg:42)
75 Karalee Anderson Sharla Park Leonidas Retired/DNE L2 7:37:06 11.2, 9.8 10.50 35, 42, 50 (Avg:46)
52 Naomi Lee River Oak Nullabor Retired/DNE L2 7:40:03 11.2, 9.7 10.43 36, 49, 40 (Avg:44)
54 Vic Alran Amarin Brindi Retired/DNE L2 7:40:08 10.3, 10.5 10.43 36, 44, 44 (Avg:44)
69 Sarah Love Kalkadoon Ricochet Retired/DNE L2 7:55:44 10.2, 9.9 10.09 33, 46, 45 (Avg:45)
12 Victoria Holme Samadhi Retired/DNE L2 8:11:18 9.8, 9.7 9.77 36, 43, 45 (Avg:44)
82 Celeste Shields Indy Retired/DNE L2 8:18:53 10.7, 8.7 9.62 32, 36, 40 (Avg:38)
5 Karen Winkel Shardell Azeem W/D on track L2 0:00:00 - - 32, 47, 53, 53 (Avg:51)
85 Annette Chamberlain Annordean Lady Annette Metabolics moderate L1 0:00:00 11.6 - 32, 32, 45 (Avg:38)
64 Mindy Davies Ra Silver Dancer Lame L1 0:00:00 38.7 - 35, 45 (Avg:45)
42 Liesel Houtkamp Brookleigh Jaspar Lame L1 0:00:00 12.6 - 35, 39 (Avg:39)
55 Brooke Marshall Kharnivale EP W/D on track L1 0:00:00 - - 34, 34 (Avg:34)
46 Casey McMeekin Joslian Zebedee Lame P/R 0:00:00 - - 35, 40 (Avg:40)
Junior
73 Georgie Barber Concerto 1 (BC) 7:14:04 17.4, 16.1, 16.2 16.59 36, 43, 44, 40 (Avg:42)
50 Noah Hoogland Steel Poppy Hot Chocolate 2 7:14:06 15.3, 16.2, 18.3 16.59 41, 43, 48, 50 (Avg:47)
74 Charlotte Williamson Rodborough Samira 3 8:02:12 17.4, 16.1, 12.2 14.93 34, 33, 32, 37 (Avg:34)
40 Lexi Webb Bremervale Winchester 4 8:08:05 15.3, 15.5, 13.5 14.75 35, 45, 46, 47 (Avg:46)
44 Matty Sample Brookleigh Beyonce 5 9:06:38 13.2, 13.2, 13.0 13.17 28, 41, 46, 39 (Avg:42)
38 Piper O'Brien Envious te 6 12:05:32 10.7, 10.2, 8.9 9.92 32, 36, 49, 43 (Avg:42)
63 Charlize Renner Stevie Wonder te Retired/DNE L2 7:36:27 10.7, 10.2 10.52 55, 46, 47 (Avg:46)
56 Emily Newman-Tyler Flemingo Papilion Retired/DNE L2 7:40:20 10.3, 10.5 10.43 38, 44, 52 (Avg:48)
80 Georgia Morton Ramalea Magnum Retired/DNE L2 8:05:17 10.3, 9.4 9.89 30, 41, 47 (Avg:44)
34 Emily Picker Stirling's Basil Retired/DNE L2 8:29:34 9.4, 9.4 9.42 40, 44, 51 (Avg:47)
35 Mary Duncan Mr Fait Accompli Retired/DNE L2 8:29:50 9.4, 9.3 9.41 31, 36, 43 (Avg:39)
57 Mognild Eerkens Arab Crest Armani Retired/DNE L2 10:01:02 9.6, 6.7 7.99 42, 47, 50 (Avg:48)
100 Taylor Grogan Dee Dee Retired/DNE L2 10:09:23 8.7, 7.1 7.88 34, 39, 46 (Avg:42)
72 Ellie-Rose Bowden Silver Centurion Lame L2 0:00:00 11.2, 9.8 - 34, 44, 49 (Avg:46)
51 Ben Hoey My Name is Earl Lame L2 0:00:00 14.9, 16.7 - 37, 48, 49 (Avg:48)
29 Eadie McWilliam Samantha te Lame L2 0:00:00 14.3, 14.2 - 33, 44, 48 (Avg:46)
47 Hayley Manderson Robin Hoods Ghost Lame P/R 0:00:00 - - 36